Share

Pickstown, SD (57367)

6:12 PM CDT on April 23, 2014 (GMT -0500)
The O'Neill Municipal-Baker (KONL) Elev 2031 ft | 42.47 °N, 98.69 °W | Change Station
Active Advisory: Fire Weather Warning Active Notice: Public Information Statement

Current weather conditions updated 17 minutes ago

Clear
Clear
80 °F
Feels Like 80 °F
N
13
Wind Variable Wind from West
Gusts 18 mph
Sunrise 6:39 AM
Sunset 8:26 PM
Moon Waning Crescent

Tomorrow is forecast to be Much Cooler than today.

Pressure 29.50 in
Visibility 10.0 miles
Clouds Clear
Dew Point 36 °F
Humidity 21%
Rainfall 0.00 in
Snow Depth Not available.
UV 2 out of 16
Pollen 8.60 out of 12
Air Quality Not available.
Flu Activity Sporadic
METAR KONL 232255Z AUTO 28011G16KT 10SM CLR 27/03 A2950 RMK AO2 T02660025

More Conditions Fewer Conditions

Pressure 29.50 in
Visibility 10.0 miles
Clouds Clear
Dew Point 36 °F
Humidity 21%
Rainfall 0.00 in
Snow Depth Not available.
UV 2 out of 16
Pollen 8.60 out of 12
Air Quality Not available.
Flu Activity Sporadic
METAR KONL 232255Z AUTO 28011G16KT 10SM CLR 27/03 A2950 RMK AO2 T02660025

More Conditions Fewer Conditions

10-Day Weather Forecast

Almanac

Astronomy

Apr. 23, 2014 Rise Set
Actual Time 6:39 AM CDT 8:26 PM CDT
Civil Twilight 6:09 AM CDT 8:56 PM CDT
Nautical Twilight 5:32 AM CDT 9:33 PM CDT
Astronomical Twilight 4:52 AM CDT 10:13 PM CDT
Moon 3:21 AM CDT 2:27 PM CDT
Length of Visible Light 14h 47m
Length of Day
13h 46m
Tomorrow will be 2m 41s longer.
Waning Crescent, 32% of the Moon is Illuminated
Today
Waning Crescent
Apr 29
New
May 6
First Quarter
May 14
Full
May 21
Last Quarter

Today's Extremes

State Highs State Lows

Community

  • Nestled In
    Nestled In
  • Stunning Sunrise
    Stunning Sunrise
  • spring flowers
    spring flowers
  • Earth Day Spectrum Ove' Blue
    Earth Day Spectrum Ove' Blue
  • BARN B&W
    BARN B&W

WunderPhotos

Upload Photos

1,704,454 photos uploaded!

WunderBlogs® & News

Nearby

Snow Depth

Station Depth Elevation
North Rapid Creek 10 in 6130 ft
Blind Park 9 in 6890 ft

Coastal Water Temperatures

Place Temperature
No Stations Reporting

Earthquake Activity

City Distance Mag. Time & Date
No recent earthquake activity has been reported nearby.
Minimum magnitude displayed is 2.5.

Nearby Weather Stations

There are no personal weather stations in this area.

What do you think?

We're not finished. Please let us know what you like, what you don't like, and what you are still missing.